createdAt,value
2022-08-14T00:03:40.680Z,20.27
2022-08-14T00:08:55.458Z,20.23
2022-08-14T00:11:26.543Z,20.18
2022-08-14T00:13:57.918Z,20.19
2022-08-14T00:16:41.320Z,20.19
2022-08-14T00:19:19.068Z,20.11
2022-08-14T00:21:47.947Z,20.02
2022-08-14T00:24:28.466Z,19.96
2022-08-14T00:26:57.015Z,19.92
2022-08-14T00:29:25.585Z,19.89
2022-08-14T00:31:56.477Z,19.82
2022-08-14T00:34:35.247Z,19.81
2022-08-14T00:37:05.570Z,19.84
2022-08-14T00:39:33.153Z,19.82
2022-08-14T00:42:01.029Z,19.78
2022-08-14T00:44:32.636Z,19.69
2022-08-14T00:47:10.586Z,19.65
2022-08-14T00:49:42.616Z,19.53
2022-08-14T00:52:17.709Z,19.45
2022-08-14T00:54:47.169Z,19.32
2022-08-14T00:57:13.894Z,19.36
2022-08-14T00:59:41.238Z,19.32
2022-08-14T01:02:09.522Z,19.33
2022-08-14T01:04:38.360Z,19.27
2022-08-14T01:07:20.861Z,19.21
2022-08-14T01:09:50.435Z,19.14
2022-08-14T01:12:26.743Z,19.18
2022-08-14T01:14:58.542Z,19.18
2022-08-14T01:17:49.234Z,19.15
2022-08-14T01:20:35.977Z,19.14
2022-08-14T01:23:18.894Z,19.06
2022-08-14T01:25:51.118Z,19.08
2022-08-14T01:28:46.770Z,19.07
2022-08-14T01:31:09.003Z,19.03
2022-08-14T01:35:15.831Z,18.98
2022-08-14T01:36:27.967Z,19.01
2022-08-14T01:38:58.893Z,18.88
2022-08-14T01:41:29.977Z,18.82
2022-08-14T01:44:01.499Z,18.82
2022-08-14T01:46:33.455Z,18.84
2022-08-14T01:49:15.250Z,18.85
2022-08-14T01:51:44.377Z,18.72
2022-08-14T01:54:22.001Z,18.72
2022-08-14T01:56:55.823Z,18.71
2022-08-14T01:59:37.866Z,18.70
2022-08-14T02:02:19.779Z,18.64
2022-08-14T02:04:55.126Z,18.64
2022-08-14T02:07:34.235Z,18.56
2022-08-14T02:10:13.158Z,18.52
2022-08-14T02:12:42.108Z,18.46
2022-08-14T02:15:09.279Z,18.48
2022-08-14T02:17:35.769Z,18.45
2022-08-14T02:20:02.945Z,18.46
2022-08-14T02:22:33.370Z,18.36
2022-08-14T02:25:01.279Z,18.31
2022-08-14T02:28:22.426Z,18.33
2022-08-14T02:30:15.949Z,18.25
2022-08-14T02:32:43.199Z,18.24
2022-08-14T02:35:17.738Z,18.22
2022-08-14T02:37:49.597Z,18.18
2022-08-14T02:42:55.327Z,18.11
2022-08-14T02:45:33.009Z,18.01
2022-08-14T02:48:10.165Z,17.97
2022-08-14T02:50:53.539Z,17.96
2022-08-14T02:53:20.083Z,17.90
2022-08-14T02:55:46.776Z,17.87
2022-08-14T02:58:13.191Z,17.85
2022-08-14T03:00:55.853Z,17.83
2022-08-14T03:03:24.718Z,17.85
2022-08-14T03:05:52.754Z,17.86
2022-08-14T03:08:21.387Z,17.84
2022-08-14T03:10:49.545Z,17.85
2022-08-14T03:13:20.909Z,17.85
2022-08-14T03:15:56.111Z,17.85
2022-08-14T03:18:31.372Z,17.88
2022-08-14T03:21:04.291Z,17.89
2022-08-14T03:23:38.050Z,17.91
2022-08-14T03:26:07.807Z,17.93
2022-08-14T03:28:34.496Z,17.91
2022-08-14T03:31:04.198Z,17.87
2022-08-14T03:33:40.763Z,17.83
2022-08-14T03:37:38.706Z,17.70
2022-08-14T03:39:13.317Z,17.59
2022-08-14T03:41:45.095Z,17.51
2022-08-14T03:45:25.467Z,17.49
2022-08-14T03:46:57.965Z,17.43
2022-08-14T03:49:29.198Z,17.40
2022-08-14T03:52:04.631Z,17.34
2022-08-14T03:54:35.642Z,17.30
2022-08-14T03:57:03.398Z,17.24
2022-08-14T03:59:34.037Z,17.19
2022-08-14T04:02:04.439Z,17.09
2022-08-14T04:04:31.835Z,16.93
2022-08-14T04:07:00.726Z,16.89
2022-08-14T04:09:27.650Z,16.88
2022-08-14T04:11:54.619Z,16.87
2022-08-14T04:14:23.633Z,16.85
2022-08-14T04:16:50.581Z,16.84
2022-08-14T04:19:19.239Z,16.67
2022-08-14T04:22:02.186Z,16.54
2022-08-14T04:24:38.542Z,16.49
2022-08-14T04:27:13.243Z,16.46
2022-08-14T04:29:45.082Z,16.45
2022-08-14T04:33:02.022Z,16.46
2022-08-14T04:35:00.029Z,16.47
2022-08-14T04:40:40.236Z,16.49
2022-08-14T04:43:46.008Z,16.48
2022-08-14T04:46:55.877Z,16.43
2022-08-14T04:49:08.035Z,16.37
2022-08-14T04:51:37.467Z,16.35
2022-08-14T04:54:12.931Z,16.35
2022-08-14T04:56:39.701Z,16.31
2022-08-14T04:59:10.338Z,16.32
2022-08-14T05:01:40.232Z,16.34
2022-08-14T05:04:08.639Z,16.42
2022-08-14T05:06:40.993Z,16.50
2022-08-14T05:09:11.622Z,16.64
2022-08-14T05:11:40.729Z,16.72
2022-08-14T05:14:33.128Z,16.81
2022-08-14T05:16:53.899Z,17.01
2022-08-14T05:19:29.189Z,17.05
2022-08-14T05:22:15.597Z,17.06
2022-08-14T05:24:45.125Z,17.19
2022-08-14T05:27:11.663Z,17.26
2022-08-14T05:29:38.105Z,17.33
2022-08-14T05:32:07.693Z,17.45
2022-08-14T05:37:02.899Z,17.54
2022-08-14T05:39:31.325Z,17.57
2022-08-14T05:41:58.321Z,17.65
2022-08-14T05:44:29.700Z,17.75
2022-08-14T05:46:57.289Z,17.85
2022-08-14T05:52:01.601Z,18.13
2022-08-14T05:54:35.275Z,18.16
2022-08-14T05:57:06.090Z,18.28
2022-08-14T05:59:39.260Z,18.38
2022-08-14T06:02:10.169Z,18.51
2022-08-14T06:04:37.182Z,18.60
2022-08-14T06:12:03.198Z,18.82
2022-08-14T06:14:31.152Z,18.93
2022-08-14T06:16:57.560Z,19.03
2022-08-14T06:19:24.107Z,19.07
2022-08-14T06:21:58.153Z,19.13
2022-08-14T06:26:56.609Z,19.39
2022-08-14T06:29:32.227Z,19.47
2022-08-14T06:32:38.191Z,19.58
2022-08-14T06:35:09.214Z,19.66
2022-08-14T06:40:27.017Z,19.87
2022-08-14T06:42:56.534Z,19.96
2022-08-14T06:45:26.180Z,20.04
2022-08-14T06:50:27.926Z,20.28
2022-08-14T06:52:55.603Z,20.47
2022-08-14T06:55:25.962Z,20.60
2022-08-14T06:57:54.482Z,20.74
2022-08-14T07:00:26.653Z,20.83
2022-08-14T07:03:13.124Z,20.94
2022-08-14T07:05:54.973Z,21.02
2022-08-14T07:08:28.724Z,21.12
2022-08-14T07:11:00.645Z,21.24
2022-08-14T07:13:28.242Z,21.30
2022-08-14T07:15:58.533Z,21.42
2022-08-14T07:18:33.596Z,21.51
2022-08-14T07:21:01.523Z,21.59
2022-08-14T07:25:59.299Z,21.89
2022-08-14T07:36:27.189Z,21.93
2022-08-14T07:39:00.526Z,21.97
2022-08-14T07:41:33.855Z,22.08
2022-08-14T07:44:29.077Z,22.24
2022-08-14T07:46:49.720Z,22.30
2022-08-14T07:49:17.878Z,22.40
2022-08-14T07:51:45.326Z,22.47
2022-08-14T07:59:18.249Z,22.69
2022-08-14T08:04:24.201Z,22.82
2022-08-14T08:06:52.526Z,22.89
2022-08-14T08:09:25.070Z,22.97
2022-08-14T08:14:26.161Z,23.17
2022-08-14T08:19:22.633Z,23.30
2022-08-14T08:21:49.138Z,23.29
2022-08-14T08:24:18.391Z,23.36
2022-08-14T08:26:46.172Z,23.39
2022-08-14T08:29:20.220Z,23.46
2022-08-14T08:31:52.465Z,23.56
2022-08-14T08:34:20.784Z,23.58
2022-08-14T08:36:51.472Z,23.67
2022-08-14T08:39:22.692Z,23.90
2022-08-14T08:41:53.207Z,23.89
2022-08-14T08:44:31.904Z,23.91
2022-08-14T08:47:05.127Z,24.03
2022-08-14T08:49:48.698Z,24.21
2022-08-14T08:52:30.901Z,24.19
2022-08-14T08:57:26.055Z,24.44
2022-08-14T09:02:25.992Z,24.65
2022-08-14T09:05:01.946Z,24.76
2022-08-14T09:07:28.627Z,24.80
2022-08-14T09:09:59.379Z,24.76
2022-08-14T09:14:53.905Z,24.81
2022-08-14T09:17:20.666Z,24.71
2022-08-14T09:19:53.643Z,24.73
2022-08-14T09:22:35.580Z,24.82
2022-08-14T09:25:07.286Z,24.84
2022-08-14T09:27:34.889Z,24.86
2022-08-14T09:30:01.886Z,25.01
2022-08-14T09:33:09.104Z,25.09
2022-08-14T09:38:27.279Z,25.21
2022-08-14T09:42:21.919Z,25.23
2022-08-14T09:46:55.802Z,25.22
2022-08-14T09:49:40.061Z,25.24
2022-08-14T09:52:32.850Z,25.22
2022-08-14T09:54:59.819Z,25.35
2022-08-14T09:57:30.854Z,25.47
2022-08-14T09:59:58.328Z,25.50
2022-08-14T10:02:31.258Z,25.59
2022-08-14T10:05:09.946Z,25.53
2022-08-14T10:12:50.060Z,25.62
2022-08-14T10:15:22.001Z,25.66
2022-08-14T10:17:53.261Z,25.74
2022-08-14T10:20:39.656Z,25.64
2022-08-14T10:23:18.760Z,25.61
2022-08-14T10:25:50.518Z,25.59
2022-08-14T10:28:39.389Z,25.67
2022-08-14T10:31:44.446Z,25.76
2022-08-14T10:34:18.280Z,25.71
2022-08-14T10:39:23.495Z,25.89
2022-08-14T10:42:05.275Z,25.94
2022-08-14T10:44:52.382Z,25.98
2022-08-14T10:47:39.282Z,25.93
2022-08-14T10:50:07.598Z,25.88
2022-08-14T10:52:35.543Z,25.98
2022-08-14T10:55:08.109Z,26.01
2022-08-14T10:57:36.091Z,26.10
2022-08-14T11:00:20.638Z,26.24
2022-08-14T11:05:26.654Z,26.23
2022-08-14T11:10:27.906Z,26.26
2022-08-14T11:12:57.059Z,26.21
2022-08-14T11:15:27.014Z,26.25
2022-08-14T11:17:56.431Z,26.42
2022-08-14T11:20:32.077Z,26.39
2022-08-14T11:25:44.036Z,26.46
2022-08-14T11:28:46.345Z,26.55
2022-08-14T11:31:11.091Z,26.63
2022-08-14T11:33:38.727Z,26.61
2022-08-14T11:36:18.447Z,26.56
2022-08-14T11:38:46.149Z,26.72
2022-08-14T11:41:14.567Z,26.88
2022-08-14T11:43:57.905Z,26.95
2022-08-14T11:46:29.566Z,26.97
2022-08-14T11:49:01.877Z,27.06
2022-08-14T11:54:19.335Z,27.17
2022-08-14T11:56:49.713Z,27.16
2022-08-14T12:04:31.727Z,26.99
2022-08-14T12:11:58.547Z,27.09
2022-08-14T12:17:12.146Z,27.10
2022-08-14T12:19:56.704Z,27.01
2022-08-14T12:25:21.555Z,26.96
2022-08-14T12:27:54.763Z,27.05
2022-08-14T12:30:39.483Z,27.25
2022-08-14T12:38:36.025Z,27.11
2022-08-14T12:41:06.325Z,27.04
2022-08-14T12:43:55.482Z,27.06
2022-08-14T12:46:46.588Z,27.09
2022-08-14T12:49:18.672Z,27.19
2022-08-14T12:51:57.437Z,27.32
2022-08-14T12:54:28.035Z,27.50
2022-08-14T12:57:17.309Z,27.74
2022-08-14T12:59:45.539Z,27.78
2022-08-14T13:02:26.083Z,27.82
2022-08-14T13:04:55.635Z,27.93
2022-08-14T13:07:22.879Z,27.80
2022-08-14T13:12:31.934Z,27.43
2022-08-14T13:17:42.830Z,27.25
2022-08-14T13:20:24.447Z,27.24
2022-08-14T13:22:52.854Z,27.33
2022-08-14T13:25:27.188Z,27.39
2022-08-14T13:27:57.711Z,27.57
2022-08-14T13:30:25.729Z,27.69
2022-08-14T13:32:54.397Z,27.69
2022-08-14T13:37:52.163Z,27.76
2022-08-14T13:42:48.478Z,27.72
2022-08-14T13:45:22.057Z,27.70
2022-08-14T13:52:54.833Z,27.87
2022-08-14T13:58:03.658Z,28.08
2022-08-14T14:03:08.701Z,28.13
2022-08-14T14:08:43.589Z,28.05
2022-08-14T14:16:15.501Z,27.98
2022-08-14T14:23:49.121Z,27.70
2022-08-14T14:26:23.218Z,27.67
2022-08-14T14:28:55.219Z,27.68
2022-08-14T14:31:30.306Z,27.68
2022-08-14T14:34:07.386Z,27.76
2022-08-14T14:36:43.874Z,28.03
2022-08-14T14:39:11.000Z,28.14
2022-08-14T14:49:14.379Z,28.38
2022-08-14T14:54:10.248Z,28.42
2022-08-14T14:59:19.789Z,28.39
2022-08-14T15:01:51.036Z,28.37
2022-08-14T15:09:17.566Z,28.28
2022-08-14T15:14:55.011Z,28.39
2022-08-14T15:16:59.025Z,28.29
2022-08-14T15:19:26.709Z,28.24
2022-08-14T15:21:53.957Z,28.23
2022-08-14T15:24:26.572Z,28.20
2022-08-14T15:26:53.610Z,28.16
2022-08-14T15:29:19.989Z,28.25
2022-08-14T15:34:45.382Z,28.37
2022-08-14T15:37:02.215Z,28.32
2022-08-14T15:39:34.040Z,28.29
2022-08-14T15:42:04.171Z,28.33
2022-08-14T15:49:58.382Z,28.32
2022-08-14T15:52:32.756Z,28.33
2022-08-14T15:55:12.891Z,28.31
2022-08-14T16:00:49.438Z,28.32
2022-08-14T16:03:17.999Z,28.35
2022-08-14T16:05:45.828Z,28.31
2022-08-14T16:08:27.063Z,28.24
2022-08-14T16:13:41.647Z,28.29
2022-08-14T16:21:40.074Z,28.15
2022-08-14T16:24:08.203Z,28.09
2022-08-14T16:27:00.757Z,28.05
2022-08-14T16:29:29.010Z,27.97
2022-08-14T16:37:12.518Z,27.77
2022-08-14T16:39:41.714Z,27.67
2022-08-14T16:44:58.119Z,27.54
2022-08-14T16:55:22.288Z,27.46
2022-08-14T17:03:11.700Z,27.41
2022-08-14T17:05:43.350Z,27.41
2022-08-14T17:13:47.520Z,27.30
2022-08-14T17:16:24.981Z,27.21
2022-08-14T17:19:00.095Z,27.20
2022-08-14T17:21:37.920Z,27.25
2022-08-14T17:24:57.595Z,27.27
2022-08-14T17:26:57.264Z,27.19
2022-08-14T17:32:21.987Z,27.15
2022-08-14T17:37:35.493Z,27.10
2022-08-14T17:42:45.461Z,27.08
2022-08-14T17:45:41.811Z,27.08
2022-08-14T17:49:15.913Z,27.03
2022-08-14T17:51:14.394Z,27.04
2022-08-14T17:56:31.819Z,27.00
2022-08-14T17:59:05.337Z,26.98
2022-08-14T18:09:56.941Z,26.89
2022-08-14T18:12:41.121Z,26.86
2022-08-14T18:17:52.696Z,26.77
2022-08-14T18:21:41.151Z,26.72
2022-08-14T18:25:47.077Z,26.61
2022-08-14T18:30:58.305Z,26.52
2022-08-14T18:33:25.945Z,26.48
2022-08-14T18:35:58.637Z,26.21
2022-08-14T18:38:46.506Z,26.06
2022-08-14T18:41:36.433Z,25.93
2022-08-14T18:44:10.462Z,25.73
2022-08-14T18:49:33.674Z,25.75
2022-08-14T18:52:13.214Z,25.62
2022-08-14T18:54:48.505Z,25.61
2022-08-14T18:57:15.260Z,25.44
2022-08-14T18:59:46.675Z,25.34
2022-08-14T19:02:30.717Z,25.24
2022-08-14T19:05:02.699Z,25.20
2022-08-14T19:10:10.155Z,25.04
2022-08-14T19:12:52.744Z,24.98
2022-08-14T19:15:25.697Z,24.97
2022-08-14T19:18:14.212Z,24.93
2022-08-14T19:20:53.920Z,24.95
2022-08-14T19:23:42.330Z,24.95
2022-08-14T19:26:36.632Z,24.90
2022-08-14T19:29:38.379Z,24.86
2022-08-14T19:32:39.651Z,24.70
2022-08-14T19:35:49.025Z,24.48
2022-08-14T19:38:45.004Z,24.32
2022-08-14T19:41:16.187Z,24.26
2022-08-14T19:43:55.704Z,24.19
2022-08-14T19:46:38.904Z,24.17
2022-08-14T19:49:23.074Z,24.13
2022-08-14T19:52:20.804Z,24.19
2022-08-14T19:54:50.569Z,24.22
2022-08-14T19:57:19.069Z,24.30
2022-08-14T19:59:57.790Z,24.41
2022-08-14T20:02:30.010Z,24.34
2022-08-14T20:05:02.995Z,24.21
2022-08-14T20:09:05.719Z,24.21
2022-08-14T20:11:07.901Z,24.22
2022-08-14T20:13:32.659Z,24.18
2022-08-14T20:16:12.133Z,24.14
2022-08-14T20:18:48.979Z,24.11
2022-08-14T20:26:32.017Z,24.03
2022-08-14T20:29:05.146Z,24.01
2022-08-14T20:31:37.290Z,23.98
2022-08-14T20:34:07.691Z,23.95
2022-08-14T20:41:44.415Z,23.82
2022-08-14T20:44:41.087Z,23.75
2022-08-14T20:47:13.323Z,23.67
2022-08-14T20:49:41.341Z,23.65
2022-08-14T20:52:19.115Z,23.62
2022-08-14T20:54:50.249Z,23.58
2022-08-14T20:57:18.720Z,23.55
2022-08-14T20:59:52.893Z,23.47
2022-08-14T21:02:50.841Z,23.41
2022-08-14T21:05:21.754Z,23.38
2022-08-14T21:07:50.932Z,23.31
2022-08-14T21:10:35.974Z,23.31
2022-08-14T21:16:05.495Z,23.16
2022-08-14T21:18:55.364Z,23.04
2022-08-14T21:21:41.765Z,23.01
2022-08-14T21:24:38.415Z,22.98
2022-08-14T21:27:00.343Z,22.91
2022-08-14T21:29:31.233Z,22.82
2022-08-14T21:31:57.592Z,22.73
2022-08-14T21:34:30.970Z,22.63
2022-08-14T21:37:07.732Z,22.62
2022-08-14T21:39:35.692Z,22.49
2022-08-14T21:42:02.497Z,22.41
2022-08-14T21:47:12.802Z,22.33
2022-08-14T21:49:40.220Z,22.32
2022-08-14T21:52:49.187Z,22.34
2022-08-14T21:55:09.320Z,22.40
2022-08-14T21:58:44.722Z,22.34
2022-08-14T22:00:35.240Z,22.31
2022-08-14T22:03:06.229Z,22.19
2022-08-14T22:05:37.432Z,22.07
2022-08-14T22:08:06.409Z,21.92
2022-08-14T22:10:34.377Z,21.91
2022-08-14T22:13:01.806Z,21.85
2022-08-14T22:25:32.967Z,21.92
2022-08-14T22:30:26.840Z,21.88
2022-08-14T22:32:57.414Z,21.92
2022-08-14T22:35:26.457Z,21.95
2022-08-14T22:38:34.765Z,21.92
2022-08-14T22:41:02.544Z,21.89
2022-08-14T22:43:31.730Z,21.87
2022-08-14T22:55:52.038Z,21.50
2022-08-14T22:58:30.479Z,21.49
2022-08-14T23:01:00.911Z,21.44
2022-08-14T23:03:28.937Z,21.45
2022-08-14T23:05:55.526Z,21.38
2022-08-14T23:11:10.373Z,21.21
2022-08-14T23:13:38.994Z,21.17
2022-08-14T23:16:06.435Z,21.19
2022-08-14T23:18:32.790Z,21.15
2022-08-14T23:20:59.219Z,21.10
2022-08-14T23:23:27.217Z,21.07
2022-08-14T23:26:00.092Z,21.04
2022-08-14T23:28:58.262Z,20.95
2022-08-14T23:31:34.516Z,20.88
2022-08-14T23:34:06.620Z,20.86
2022-08-14T23:36:37.976Z,20.84
2022-08-14T23:41:56.566Z,20.77
2022-08-14T23:44:23.613Z,20.75
2022-08-14T23:46:57.139Z,20.77
2022-08-14T23:49:41.245Z,20.73
2022-08-14T23:52:50.374Z,20.71
2022-08-14T23:55:05.452Z,20.64
2022-08-14T23:57:31.885Z,20.52
2022-08-14T23:59:59.438Z,20.40
